Time;durP1;ratioP1;P1;durP2;ratioP2;P2;SDS_P1;SDS_P2;PMS_P1;PMS_P2;Temp;Humidity;BMP_temperature;BMP_pressure;BME280_temperature;BME280_humidity;BME280_pressure;Samples;Min_cycle;Max_cycle;Signal;HPM_P1;HPM_P2
2022/02/25 00:00:55;;;;;;;;;;;;;;;1.48;99.84;99894.85;1695874;83;20440;-70
2022/02/25 00:03:30;;;;;;;;;;;;;;;1.48;100.00;99886.73;1692294;84;20075;-71
2022/02/25 00:06:14;;;;;;;;;;;;;;;1.50;100.00;99888.66;1692265;85;20096;-68
2022/02/25 00:08:46;;;;;;;;;;;;;;;1.55;100.00;99885.21;1659727;85;20502;-69
2022/02/25 00:11:42;;;;;;;;;;;;;;;1.57;100.00;99880.38;1688002;83;20124;-69
2022/02/25 00:14:15;;;;;;;;;;;;;;;1.59;99.89;99883.11;1670297;85;20134;-70
2022/02/25 00:16:48;;;;;;;;;;;;;;;1.61;99.79;99884.22;1692890;84;20479;-70
2022/02/25 00:19:35;;;;;;;;;;;;;;;1.61;99.69;99880.16;1718700;83;20121;-69
2022/02/25 00:22:05;;;;;;;;;;;;;;;1.61;99.59;99874.22;1718767;83;20101;-70
2022/02/25 00:24:35;;;;;;;;;;;;;;;1.67;99.42;99868.88;1718605;83;20444;-70
2022/02/25 00:27:21;;;;;;;;;;;;;;;1.71;98.98;99865.42;1718853;83;20144;-69
2022/02/25 00:29:54;;;;;;;;;;;;;;;1.75;98.47;99865.70;1715687;83;20162;-71
2022/02/25 00:32:43;;;;;;;;;;;;;;;1.75;97.93;99864.35;1703889;84;20130;-71
2022/02/25 00:35:16;;;;;;;;;;;;;;;1.76;97.61;99864.64;1697809;84;20131;-69
2022/02/25 00:38:11;;;;;;;;;;;;;;;1.76;97.44;99864.64;1703862;84;20130;-69
2022/02/25 00:40:43;;;;;;;;;;;;;;;1.78;97.13;99867.38;1707729;82;20488;-69
2022/02/25 00:43:11;;;;;;;;;;;;;;;1.79;96.07;99860.90;1690995;84;20172;-69
2022/02/25 00:45:58;;;;;;;;;;;;;;;1.83;93.30;99859.33;1702134;84;20179;-68
2022/02/25 00:48:35;;;;;;;;;;;;;;;1.88;93.32;99853.98;1673742;84;20156;-68
2022/02/25 00:51:02;;;;;;;;;;;;;;;1.92;93.15;99853.77;1702361;84;20463;-68
2022/02/25 00:53:32;;;;;;;;;;;;;;;1.93;93.02;99849.98;1702554;84;20427;-69
2022/02/25 00:56:01;;;;;;;;;;;;;;;1.92;93.08;99852.41;1698334;84;22396;-68
2022/02/25 00:58:28;;;;;;;;;;;;;;;1.92;92.55;99842.94;1702506;84;20160;-68
2022/02/25 01:00:59;;;;;;;;;;;;;;;1.92;91.91;99836.70;1701778;84;20154;-69
2022/02/25 01:03:27;;;;;;;;;;;;;;;1.92;91.22;99841.58;1701281;84;20504;-68
2022/02/25 01:06:18;;;;;;;;;;;;;;;1.92;91.08;99834.81;1701414;84;20187;-69
2022/02/25 01:08:46;;;;;;;;;;;;;;;1.93;90.63;99837.80;1674594;84;20439;-68
2022/02/25 01:11:32;;;;;;;;;;;;;;;1.94;90.31;99834.02;1701072;84;20489;-69
2022/02/25 01:13:59;;;;;;;;;;;;;;;1.95;89.73;99829.43;1701219;84;20144;-69
2022/02/25 01:16:32;;;;;;;;;;;;;;;1.95;88.75;99831.60;1674866;84;20470;-69
2022/02/25 01:18:59;;;;;;;;;;;;;;;1.95;87.82;99832.95;1700320;84;20152;-69
2022/02/25 01:21:29;;;;;;;;;;;;;;;1.97;87.63;99828.11;1701109;84;20769;-69
2022/02/25 01:24:20;;;;;;;;;;;;;;;2.00;87.40;99829.48;1701052;84;20151;-68
2022/02/25 01:26:51;;;;;;;;;;;;;;;2.00;86.38;99818.66;1700831;84;20128;-70
2022/02/25 01:29:37;;;;;;;;;;;;;;;1.99;85.59;99816.48;1701388;83;20127;-70
2022/02/25 01:32:06;;;;;;;;;;;;;;;2.00;85.34;99807.83;1672560;86;20463;-68
2022/02/25 01:34:39;;;;;;;;;;;;;;;1.98;85.37;99799.95;1672787;86;21058;-68
2022/02/25 01:37:16;;;;;;;;;;;;;;;1.96;85.64;99798.04;1642985;86;20127;-68
2022/02/25 01:39:45;;;;;;;;;;;;;;;1.94;85.69;99793.41;1668762;84;20129;-69
2022/02/25 01:42:17;;;;;;;;;;;;;;;1.93;85.78;99793.66;1668762;86;20114;-72
2022/02/25 01:44:48;;;;;;;;;;;;;;;1.88;86.26;99789.01;1668930;86;20129;-71
2022/02/25 01:47:17;;;;;;;;;;;;;;;1.85;87.02;99783.28;1667987;86;21766;-68
2022/02/25 01:49:51;;;;;;;;;;;;;;;1.84;87.48;99783.00;1673713;84;20460;-69
2022/02/25 01:52:18;;;;;;;;;;;;;;;1.78;87.83;99780.77;1691386;84;20114;-69
2022/02/25 01:54:45;;;;;;;;;;;;;;;1.77;88.25;99779.13;1671706;86;20584;-70
2022/02/25 01:57:14;;;;;;;;;;;;;;;1.74;88.45;99782.34;1683787;85;20162;-69
2022/02/25 01:59:41;;;;;;;;;;;;;;;1.75;88.38;99779.91;1691944;85;21167;-69
2022/02/25 02:02:07;;;;;;;;;;;;;;;1.77;88.04;99776.95;1701609;83;20109;-69
2022/02/25 02:04:34;;;;;;;;;;;;;;;1.77;87.56;99771.01;1715791;83;20140;-69
2022/02/25 02:07:00;;;;;;;;;;;;;;;1.80;87.29;99775.91;1699683;84;20144;-68
2022/02/25 02:09:44;;;;;;;;;;;;;;;1.84;87.13;99773.52;1695178;84;20132;-68
2022/02/25 02:12:11;;;;;;;;;;;;;;;1.84;86.89;99785.17;1703397;83;21058;-70
2022/02/25 02:14:55;;;;;;;;;;;;;;;1.83;86.75;99770.00;1694371;84;20128;-68
2022/02/25 02:17:22;;;;;;;;;;;;;;;1.83;86.93;99771.89;1713908;83;20165;-69
2022/02/25 02:19:49;;;;;;;;;;;;;;;1.83;85.26;99768.64;1713906;83;20652;-67
2022/02/25 02:22:15;;;;;;;;;;;;;;;1.85;83.81;99766.50;1711744;84;20116;-68
2022/02/25 02:24:42;;;;;;;;;;;;;;;1.86;83.61;99768.14;1693808;83;21287;-67
2022/02/25 02:27:08;;;;;;;;;;;;;;;1.87;83.38;99764.89;1701981;83;20134;-68
2022/02/25 02:29:35;;;;;;;;;;;;;;;1.88;82.50;99767.88;1688202;83;20672;-68
2022/02/25 02:32:01;;;;;;;;;;;;;;;1.88;82.46;99763.28;1696137;84;20186;-68
2022/02/25 02:34:27;;;;;;;;;;;;;;;1.88;81.79;99764.64;1696673;84;20123;-68
2022/02/25 02:36:53;;;;;;;;;;;;;;;1.90;81.71;99771.16;1724317;83;21063;-68
2022/02/25 02:39:38;;;;;;;;;;;;;;;1.89;81.69;99760.86;1689584;85;20100;-68
2022/02/25 02:42:06;;;;;;;;;;;;;;;1.89;81.94;99756.80;1693659;84;20076;-69
2022/02/25 02:44:32;;;;;;;;;;;;;;;1.91;81.42;99756.55;1693781;84;20471;-68
2022/02/25 02:46:58;;;;;;;;;;;;;;;1.91;81.12;99756.02;1724215;83;20073;-67
2022/02/25 02:49:25;;;;;;;;;;;;;;;1.94;81.18;99758.75;1724138;83;21170;-67
2022/02/25 02:51:52;;;;;;;;;;;;;;;1.96;81.24;99762.02;1693476;84;20103;-67
2022/02/25 02:54:19;;;;;;;;;;;;;;;1.97;81.25;99761.77;1688216;84;20174;-68
2022/02/25 02:56:45;;;;;;;;;;;;;;;1.99;81.63;99762.33;1729459;82;20441;-68
2022/02/25 02:59:30;;;;;;;;;;;;;;;1.98;81.51;99768.81;1720882;83;20098;-67
2022/02/25 03:01:57;;;;;;;;;;;;;;;1.95;81.29;99766.62;1724789;83;21143;-67
2022/02/25 03:04:41;;;;;;;;;;;;;;;1.93;81.07;99766.59;1720824;83;20149;-67
2022/02/25 03:07:10;;;;;;;;;;;;;;;1.90;81.46;99765.20;1725275;83;20086;-67
2022/02/25 03:09:37;;;;;;;;;;;;;;;1.87;81.83;99766.25;1724766;82;20117;-67
2022/02/25 03:12:06;;;;;;;;;;;;;;;1.85;82.07;99763.80;1725247;83;20150;-68
2022/02/25 03:14:33;;;;;;;;;;;;;;;1.83;82.31;99764.58;1725178;83;21089;-68
2022/02/25 03:16:59;;;;;;;;;;;;;;;1.80;82.55;99758.32;1724963;82;20111;-68
2022/02/25 03:19:25;;;;;;;;;;;;;;;1.79;82.97;99752.62;1725067;83;20082;-69
2022/02/25 03:21:51;;;;;;;;;;;;;;;1.78;83.54;99748.28;1724758;82;20533;-68
2022/02/25 03:24:18;;;;;;;;;;;;;;;1.74;83.71;99737.68;1725094;83;20083;-68
2022/02/25 03:26:44;;;;;;;;;;;;;;;1.69;83.65;99737.65;1725281;83;21754;-67
2022/02/25 03:29:28;;;;;;;;;;;;;;;1.61;83.83;99734.85;1724564;83;20147;-69
2022/02/25 03:31:55;;;;;;;;;;;;;;;1.52;84.34;99733.66;1731943;82;20096;-68
2022/02/25 03:34:21;;;;;;;;;;;;;;;1.44;84.66;99731.92;1734478;82;20121;-68
2022/02/25 03:36:48;;;;;;;;;;;;;;;1.32;84.79;99730.16;1734550;82;20120;-68
2022/02/25 03:39:32;;;;;;;;;;;;;;;1.20;85.12;99725.39;1734563;82;21220;-68
2022/02/25 03:42:00;;;;;;;;;;;;;;;1.06;85.51;99727.38;1726705;81;20122;-68
2022/02/25 03:44:46;;;;;;;;;;;;;;;0.94;85.94;99735.06;1715642;83;20409;-68
2022/02/25 03:47:32;;;;;;;;;;;;;;;0.81;86.51;99729.17;1712890;83;20121;-68
2022/02/25 03:49:59;;;;;;;;;;;;;;;0.71;86.88;99726.31;1715511;83;20096;-67
2022/02/25 03:52:25;;;;;;;;;;;;;;;0.59;87.04;99729.92;1715465;83;21150;-68
2022/02/25 03:54:52;;;;;;;;;;;;;;;0.48;87.63;99728.68;1710940;84;20141;-68
2022/02/25 03:57:18;;;;;;;;;;;;;;;0.38;88.14;99723.11;1710829;84;20420;-68
2022/02/25 03:59:45;;;;;;;;;;;;;;;0.30;88.37;99720.28;1710938;83;20413;-69
2022/02/25 04:02:11;;;;;;;;;;;;;;;0.21;88.58;99713.11;1710799;83;20173;-68
2022/02/25 04:04:37;;;;;;;;;;;;;;;0.13;88.95;99714.03;1711226;84;21181;-68
2022/02/25 04:07:05;;;;;;;;;;;;;;;0.05;89.24;99707.69;1710859;84;20161;-68
2022/02/25 04:09:49;;;;;;;;;;;;;;;-0.07;89.35;99707.24;1710867;84;20102;-69
2022/02/25 04:12:15;;;;;;;;;;;;;;;-0.19;89.62;99706.48;1710985;84;20436;-68
2022/02/25 04:15:00;;;;;;;;;;;;;;;-0.28;89.99;99703.87;1711092;84;20122;-69
2022/02/25 04:17:44;;;;;;;;;;;;;;;-0.41;90.29;99698.23;1711118;84;20099;-68
2022/02/25 04:20:12;;;;;;;;;;;;;;;-0.55;90.45;99700.09;1711170;84;20116;-69
2022/02/25 04:22:38;;;;;;;;;;;;;;;-0.65;90.99;99701.27;1710986;83;20440;-69
2022/02/25 04:25:07;;;;;;;;;;;;;;;-0.72;91.44;99704.10;1711003;84;20102;-69
2022/02/25 04:27:34;;;;;;;;;;;;;;;-0.80;91.74;99705.29;1710802;84;20429;-69
2022/02/25 04:30:18;;;;;;;;;;;;;;;-0.87;91.87;99704.59;1706638;84;20121;-70
2022/02/25 04:32:46;;;;;;;;;;;;;;;-0.96;92.26;99702.50;1708667;84;20090;-68
2022/02/25 04:35:31;;;;;;;;;;;;;;;-1.03;92.66;99693.20;1711067;84;20125;-67
2022/02/25 04:38:16;;;;;;;;;;;;;;;-1.10;93.10;99697.36;1711004;84;20121;-68
2022/02/25 04:41:01;;;;;;;;;;;;;;;-1.15;93.42;99701.81;1703741;82;20417;-68
2022/02/25 04:43:29;;;;;;;;;;;;;;;-1.22;93.66;99699.80;1710968;83;23256;-68
2022/02/25 04:45:56;;;;;;;;;;;;;;;-1.26;94.01;99700.80;1710855;84;20472;-71
2022/02/25 04:48:24;;;;;;;;;;;;;;;-1.31;94.34;99693.95;1710749;83;20193;-69
2022/02/25 04:50:51;;;;;;;;;;;;;;;-1.34;94.72;99704.66;1702424;83;20116;-70
2022/02/25 04:53:19;;;;;;;;;;;;;;;-1.36;95.08;99698.69;1703549;83;20136;-70
2022/02/25 04:55:46;;;;;;;;;;;;;;;-1.38;95.22;99702.14;1697061;83;21112;-70
2022/02/25 04:58:14;;;;;;;;;;;;;;;-1.42;95.17;99695.59;1695994;83;20124;-69
2022/02/25 05:00:58;;;;;;;;;;;;;;;-1.47;95.30;99689.27;1698357;83;20165;-69
2022/02/25 05:03:25;;;;;;;;;;;;;;;-1.49;95.87;99696.23;1696870;83;20431;-69
2022/02/25 05:05:52;;;;;;;;;;;;;;;-1.47;96.28;99699.50;1695859;83;20147;-69
2022/02/25 05:08:36;;;;;;;;;;;;;;;-1.47;96.42;99695.47;1694308;83;21215;-69
2022/02/25 05:11:02;;;;;;;;;;;;;;;-1.47;96.66;99691.42;1701630;83;20151;-69
2022/02/25 05:13:47;;;;;;;;;;;;;;;-1.50;96.58;99689.73;1695675;83;20164;-68
2022/02/25 05:21:41;;;;;;;;;;;;;;;-1.59;97.09;99693.81;1645018;86;21233;-67
2022/02/25 05:24:07;;;;;;;;;;;;;;;-1.61;97.27;99683.81;1680392;84;20483;-68
2022/02/25 05:26:34;;;;;;;;;;;;;;;-1.64;97.29;99684.27;1698712;83;20424;-69
2022/02/25 05:29:01;;;;;;;;;;;;;;;-1.67;97.51;99685.03;1691834;83;20180;-69
2022/02/25 05:31:45;;;;;;;;;;;;;;;-1.67;97.85;99689.06;1704002;83;20199;-69
2022/02/25 05:34:12;;;;;;;;;;;;;;;-1.67;98.08;99688.25;1705552;83;21122;-68
2022/02/25 05:36:56;;;;;;;;;;;;;;;-1.67;98.28;99689.06;1689489;83;20448;-69
2022/02/25 05:39:22;;;;;;;;;;;;;;;-1.67;98.46;99689.59;1695490;83;20184;-67
2022/02/25 05:41:48;;;;;;;;;;;;;;;-1.67;98.67;99690.41;1699274;83;20116;-80
2022/02/25 05:44:15;;;;;;;;;;;;;;;-1.62;99.02;99698.31;1694914;84;20534;-69
2022/02/25 05:46:44;;;;;;;;;;;;;;;-1.60;99.59;99693.00;1705651;84;21108;-67
2022/02/25 05:49:10;;;;;;;;;;;;;;;-1.55;100.00;99686.39;1710447;84;20196;-69
2022/02/25 05:51:36;;;;;;;;;;;;;;;-1.47;100.00;99688.73;1710745;84;20102;-65
2022/02/25 05:54:03;;;;;;;;;;;;;;;-1.42;100.00;99690.20;1710932;84;20129;-65
2022/02/25 05:56:29;;;;;;;;;;;;;;;-1.36;100.00;99693.30;1705355;83;20205;-64
2022/02/25 05:59:14;;;;;;;;;;;;;;;-1.28;100.00;99695.36;1698266;83;21064;-62
2022/02/25 06:01:58;;;;;;;;;;;;;;;-1.15;100.00;99691.04;1695938;83;20224;-65
2022/02/25 06:04:43;;;;;;;;;;;;;;;-1.01;100.00;99694.60;1677908;83;20112;-64
2022/02/25 06:07:10;;;;;;;;;;;;;;;-0.82;100.00;99693.92;1677241;85;20507;-67
2022/02/25 06:09:36;;;;;;;;;;;;;;;-0.67;100.00;99684.80;1699682;83;20149;-72
2022/02/25 06:12:05;;;;;;;;;;;;;;;-0.50;100.00;99682.67;1716300;83;20094;-77
2022/02/25 06:14:33;;;;;;;;;;;;;;;-0.36;100.00;99686.72;1747161;81;20094;-76
2022/02/25 06:17:00;;;;;;;;;;;;;;;-0.22;100.00;99689.42;1747148;82;20288;-77
2022/02/25 06:19:26;;;;;;;;;;;;;;;-0.07;100.00;99686.19;1747178;82;22016;-65
2022/02/25 06:21:52;;;;;;;;;;;;;;;0.08;100.00;99686.95;1747121;82;20158;-65
2022/02/25 06:24:20;;;;;;;;;;;;;;;0.22;100.00;99685.58;1747113;82;21162;-67
2022/02/25 06:27:04;;;;;;;;;;;;;;;0.37;100.00;99688.53;1730133;82;20095;-74
2022/02/25 06:29:31;;;;;;;;;;;;;;;0.51;100.00;99690.38;1725196;82;20199;-77
2022/02/25 06:31:58;;;;;;;;;;;;;;;0.60;100.00;99692.38;1710263;82;20099;-77
2022/02/25 06:34:24;;;;;;;;;;;;;;;0.68;99.52;99693.85;1718191;82;20428;-73
2022/02/25 06:36:51;;;;;;;;;;;;;;;0.72;98.95;99699.58;1719052;83;21142;-74
2022/02/25 06:39:18;;;;;;;;;;;;;;;0.77;98.73;99699.66;1723848;83;20116;-67
2022/02/25 06:41:44;;;;;;;;;;;;;;;0.82;98.76;99697.03;1723642;82;20121;-67
2022/02/25 06:44:11;;;;;;;;;;;;;;;0.88;98.27;99690.09;1722519;83;20192;-67
2022/02/25 06:46:55;;;;;;;;;;;;;;;0.94;97.58;99692.34;1709210;83;20121;-67
2022/02/25 06:49:22;;;;;;;;;;;;;;;1.02;97.15;99687.05;1723823;83;21813;-67
2022/02/25 06:51:48;;;;;;;;;;;;;;;1.14;97.02;99686.39;1717455;82;20116;-67
2022/02/25 06:54:36;;;;;;;;;;;;;;;1.26;95.90;99675.71;1703325;84;20458;-67
2022/02/25 06:57:03;;;;;;;;;;;;;;;1.43;92.79;99678.89;1703080;84;20226;-67
2022/02/25 06:59:47;;;;;;;;;;;;;;;1.57;92.48;99674.19;1703263;84;20099;-67
2022/02/25 07:02:13;;;;;;;;;;;;;;;1.97;92.68;99669.71;1703158;84;21131;-66
2022/02/25 07:04:40;;;;;;;;;;;;;;;2.62;88.60;99666.43;1694190;84;20182;-67
2022/02/25 07:07:06;;;;;;;;;;;;;;;3.20;85.49;99670.00;1702963;83;20143;-68
2022/02/25 07:09:33;;;;;;;;;;;;;;;3.69;83.49;99669.08;1694497;84;20105;-68
2022/02/25 07:12:00;;;;;;;;;;;;;;;4.11;78.34;99665.33;1691937;84;20105;-68
2022/02/25 07:14:26;;;;;;;;;;;;;;;4.36;76.52;99659.09;1694447;84;20435;-68
2022/02/25 07:17:11;;;;;;;;;;;;;;;4.58;73.59;99658.27;1691864;85;20109;-67
2022/02/25 07:19:37;;;;;;;;;;;;;;;4.80;72.97;99660.11;1694580;84;20420;-68
2022/02/25 07:22:04;;;;;;;;;;;;;;;5.10;70.26;99648.89;1691934;85;20086;-68
2022/02/25 07:24:48;;;;;;;;;;;;;;;5.27;68.50;99648.80;1694347;84;20432;-67
2022/02/25 07:27:25;;;;;;;;;;;;;;;5.35;67.79;99646.59;1691619;85;39752;-67
2022/02/25 07:29:52;;;;;;;;;;;;;;;5.40;66.44;99664.27;1692573;84;20446;-67
2022/02/25 07:32:19;;;;;;;;;;;;;;;5.40;65.58;99656.92;1703905;84;20178;-67
2022/02/25 07:34:46;;;;;;;;;;;;;;;5.50;65.74;99658.78;1704224;84;20460;-68
2022/02/25 07:37:13;;;;;;;;;;;;;;;5.77;64.50;99655.66;1703814;84;20153;-67
2022/02/25 07:39:39;;;;;;;;;;;;;;;6.04;65.34;99652.48;1703912;84;21170;-67
2022/02/25 07:42:06;;;;;;;;;;;;;;;6.46;63.30;99649.14;1703747;83;20289;-67
2022/02/25 07:44:50;;;;;;;;;;;;;;;6.62;59.64;99645.17;1703949;84;20489;-68
2022/02/25 07:47:19;;;;;;;;;;;;;;;6.63;60.46;99643.53;1703873;84;20160;-68
2022/02/25 07:49:46;;;;;;;;;;;;;;;6.70;58.42;99643.74;1703942;84;20102;-70
2022/02/25 07:52:31;;;;;;;;;;;;;;;6.68;57.81;99635.84;1703788;84;20212;-68
2022/02/25 07:55:00;;;;;;;;;;;;;;;6.70;58.54;99631.47;1703846;84;20212;-74
2022/02/25 07:57:26;;;;;;;;;;;;;;;6.75;59.36;99639.60;1693285;84;20116;-70
2022/02/25 07:59:52;;;;;;;;;;;;;;;6.86;59.06;99637.03;1705106;84;20142;-71
2022/02/25 08:02:19;;;;;;;;;;;;;;;7.11;58.38;99631.27;1703924;83;20107;-68
2022/02/25 08:04:45;;;;;;;;;;;;;;;7.36;55.70;99628.79;1699541;84;21820;-69
2022/02/25 08:07:13;;;;;;;;;;;;;;;7.19;54.72;99632.00;1689656;84;20093;-68
2022/02/25 08:09:40;;;;;;;;;;;;;;;7.01;56.12;99627.84;1656104;84;20168;-67
2022/02/25 08:12:07;;;;;;;;;;;;;;;7.07;55.19;99630.22;1697418;84;20171;-67
2022/02/25 08:14:53;;;;;;;;;;;;;;;7.10;55.34;99623.38;1696753;84;20155;-68
2022/02/25 08:17:21;;;;;;;;;;;;;;;7.00;55.41;99620.75;1689548;84;21151;-68
2022/02/25 08:20:08;;;;;;;;;;;;;;;7.02;57.03;99616.63;1669604;86;20138;-69
2022/02/25 08:22:52;;;;;;;;;;;;;;;7.34;55.76;99613.80;1681423;84;20148;-68
2022/02/25 08:25:37;;;;;;;;;;;;;;;7.62;54.22;99608.75;1696553;84;20201;-72
2022/02/25 08:28:06;;;;;;;;;;;;;;;7.64;54.22;99605.17;1697856;84;20148;-72
2022/02/25 08:30:33;;;;;;;;;;;;;;;7.69;53.70;99604.29;1697984;84;21162;-68
2022/02/25 08:33:02;;;;;;;;;;;;;;;7.92;53.76;99600.67;1697753;84;20128;-69
2022/02/25 08:35:31;;;;;;;;;;;;;;;8.20;52.29;99594.73;1691607;84;20159;-69
2022/02/25 08:37:57;;;;;;;;;;;;;;;8.46;51.88;99604.17;1695497;84;20187;-68
2022/02/25 08:40:26;;;;;;;;;;;;;;;8.66;51.89;99598.08;1697875;84;20454;-68
2022/02/25 08:42:52;;;;;;;;;;;;;;;8.85;51.26;99587.28;1697865;83;21182;-67
2022/02/25 08:45:41;;;;;;;;;;;;;;;8.96;49.99;99593.93;1665954;84;20133;-75
2022/02/25 08:48:09;;;;;;;;;;;;;;;8.78;49.26;99601.11;1663943;86;20601;-67
2022/02/25 08:50:35;;;;;;;;;;;;;;;8.45;49.94;99590.79;1663954;86;20437;-67
2022/02/25 08:53:20;;;;;;;;;;;;;;;8.15;50.73;99588.79;1668074;84;20296;-67
2022/02/25 08:55:47;;;;;;;;;;;;;;;8.08;52.00;99589.75;1676058;84;21002;-66
2022/02/25 08:58:13;;;;;;;;;;;;;;;8.18;51.43;99587.38;1683460;84;20150;-67
2022/02/25 09:00:46;;;;;;;;;;;;;;;8.05;51.48;99587.62;1683272;84;20184;-67
2022/02/25 09:03:15;;;;;;;;;;;;;;;8.14;52.45;99585.80;1663053;84;20185;-68
2022/02/25 09:05:42;;;;;;;;;;;;;;;8.25;52.20;99584.52;1687752;84;20436;-66
2022/02/25 09:08:09;;;;;;;;;;;;;;;8.13;51.66;99581.44;1675450;84;21147;-66
2022/02/25 09:10:56;;;;;;;;;;;;;;;7.92;52.57;99584.27;1674271;84;20511;-66
2022/02/25 09:13:29;;;;;;;;;;;;;;;7.81;52.65;99586.90;1676055;84;20163;-69
2022/02/25 09:15:58;;;;;;;;;;;;;;;7.62;52.67;99582.80;1680733;84;20190;-66
2022/02/25 09:18:27;;;;;;;;;;;;;;;7.38;52.95;99575.24;1661038;84;20125;-69
2022/02/25 09:21:07;;;;;;;;;;;;;;;6.99;53.61;99578.19;1661557;86;20150;-73
2022/02/25 09:23:53;;;;;;;;;;;;;;;6.69;54.71;99569.83;1655387;86;20129;-65
2022/02/25 09:26:17;;;;;;;;;;;;;;;6.53;55.83;99574.07;1655387;85;20098;-65
2022/02/25 09:28:50;;;;;;;;;;;;;;;6.54;56.43;99566.16;1639800;86;20178;-72
2022/02/25 09:31:17;;;;;;;;;;;;;;;6.51;56.24;99565.36;1688907;83;20148;-69
2022/02/25 09:33:43;;;;;;;;;;;;;;;6.45;56.50;99558.33;1697863;84;21098;-73
2022/02/25 09:36:09;;;;;;;;;;;;;;;6.26;56.89;99560.19;1697784;83;20143;-70
2022/02/25 09:38:39;;;;;;;;;;;;;;;6.05;58.06;99560.09;1697768;84;20147;-72
2022/02/25 09:41:07;;;;;;;;;;;;;;;5.98;58.58;99556.88;1695687;83;21102;-65
2022/02/25 09:43:57;;;;;;;;;;;;;;;5.89;58.68;99554.77;1682995;84;20135;-65
2022/02/25 09:46:25;;;;;;;;;;;;;;;5.80;59.52;99557.80;1692497;84;21089;-73
2022/02/25 09:49:23;;;;;;;;;;;;;;;5.77;59.29;99554.86;1694889;84;20159;-71
2022/02/25 09:51:47;;;;;;;;;;;;;;;5.71;59.98;99557.36;1696751;84;20119;-72
2022/02/25 09:54:31;;;;;;;;;;;;;;;5.68;59.27;99554.65;1697530;84;20226;-72
2022/02/25 09:57:06;;;;;;;;;;;;;;;5.59;59.89;99545.45;1697557;84;20111;-74
2022/02/25 09:59:35;;;;;;;;;;;;;;;5.56;60.75;99537.84;1697658;84;21140;-76
2022/02/25 10:02:27;;;;;;;;;;;;;;;5.61;60.48;99533.73;1697254;84;20185;-70
2022/02/25 10:05:13;;;;;;;;;;;;;;;5.59;60.34;99527.20;1651865;84;20187;-71
2022/02/25 10:07:38;;;;;;;;;;;;;;;5.64;61.03;99527.16;1652638;84;20168;-67
2022/02/25 10:10:06;;;;;;;;;;;;;;;5.79;60.79;99524.84;1697320;84;21014;-69
2022/02/25 10:12:40;;;;;;;;;;;;;;;5.94;59.74;99522.58;1697393;84;20147;-70
2022/02/25 10:15:09;;;;;;;;;;;;;;;6.05;59.97;99519.22;1673854;84;20131;-69
2022/02/25 10:18:00;;;;;;;;;;;;;;;6.10;59.39;99517.27;1691606;84;20135;-68
2022/02/25 10:20:34;;;;;;;;;;;;;;;6.10;59.40;99512.36;1687006;84;20514;-71
2022/02/25 10:23:23;;;;;;;;;;;;;;;6.20;59.76;99506.27;1697881;84;20491;-74
2022/02/25 10:25:55;;;;;;;;;;;;;;;6.60;59.15;99505.54;1697207;84;21174;-74
2022/02/25 10:28:37;;;;;;;;;;;;;;;6.88;58.16;99489.65;1645958;86;20194;-73
2022/02/25 10:31:33;;;;;;;;;;;;;;;7.04;57.90;99495.69;1693840;84;20104;-71
2022/02/25 10:34:08;;;;;;;;;;;;;;;7.22;56.85;99496.81;1672711;84;20449;-71
2022/02/25 10:36:50;;;;;;;;;;;;;;;7.26;56.16;99500.02;1672292;84;20196;-72
2022/02/25 10:39:21;;;;;;;;;;;;;;;7.12;55.94;99499.69;1673382;84;20147;-69
2022/02/25 10:42:19;;;;;;;;;;;;;;;6.89;56.42;99491.27;1695008;83;20161;-71
2022/02/25 10:45:02;;;;;;;;;;;;;;;6.75;56.96;99485.45;1697527;84;20151;-66
2022/02/25 10:47:32;;;;;;;;;;;;;;;7.20;57.52;99471.72;1697499;84;20147;-67
2022/02/25 10:50:02;;;;;;;;;;;;;;;7.92;55.14;99469.47;1697850;84;20108;-67
2022/02/25 10:52:48;;;;;;;;;;;;;;;8.41;52.95;99457.91;1697551;84;21103;-73
2022/02/25 10:55:34;;;;;;;;;;;;;;;8.46;52.99;99456.99;1697498;84;20462;-70
2022/02/25 10:58:22;;;;;;;;;;;;;;;8.81;51.76;99448.03;1697562;84;20187;-71
2022/02/25 11:01:00;;;;;;;;;;;;;;;9.05;50.17;99439.58;1650047;84;20219;-69
2022/02/25 11:03:48;;;;;;;;;;;;;;;9.21;50.91;99432.63;1697298;84;20175;-73
2022/02/25 11:06:24;;;;;;;;;;;;;;;9.44;50.47;99433.44;1663980;84;20103;-73
2022/02/25 11:08:55;;;;;;;;;;;;;;;9.63;50.12;99429.14;1702929;84;20160;-73
2022/02/25 11:11:21;;;;;;;;;;;;;;;9.86;49.01;99424.42;1705464;84;20096;-72
2022/02/25 11:13:53;;;;;;;;;;;;;;;9.97;48.39;99418.12;1703296;84;20134;-72
2022/02/25 11:16:21;;;;;;;;;;;;;;;9.95;48.39;99425.28;1697903;83;20170;-72
2022/02/25 11:18:51;;;;;;;;;;;;;;;9.78;47.18;99423.28;1672441;86;21163;-72
2022/02/25 11:21:37;;;;;;;;;;;;;;;9.36;48.39;99423.78;1680501;85;20099;-76
2022/02/25 11:24:12;;;;;;;;;;;;;;;9.39;49.25;99420.42;1652138;85;20142;-73
2022/02/25 11:26:44;;;;;;;;;;;;;;;9.71;48.44;99418.80;1669299;85;21025;-66
2022/02/25 11:29:44;;;;;;;;;;;;;;;9.99;47.88;99417.23;1655831;86;20201;-65
2022/02/25 11:32:13;;;;;;;;;;;;;;;9.83;47.67;99419.56;1671090;85;21169;-65
2022/02/25 11:34:40;;;;;;;;;;;;;;;9.66;48.35;99416.75;1702038;84;21633;-64
2022/02/25 11:37:06;;;;;;;;;;;;;;;9.60;48.82;99420.98;1701952;84;20436;-65
2022/02/25 11:39:32;;;;;;;;;;;;;;;9.87;48.40;99416.45;1701780;83;20192;-65
2022/02/25 11:42:20;;;;;;;;;;;;;;;10.14;48.01;99412.16;1690110;84;20168;-64
2022/02/25 11:44:50;;;;;;;;;;;;;;;10.55;48.21;99400.05;1691187;84;21178;-65
2022/02/25 11:47:36;;;;;;;;;;;;;;;10.88;47.01;99399.87;1705244;83;20089;-65
2022/02/25 11:50:36;;;;;;;;;;;;;;;10.52;45.57;99396.00;1690588;84;20293;-65
2022/02/25 11:53:28;;;;;;;;;;;;;;;9.75;46.80;99384.16;1689310;84;20134;-65
2022/02/25 11:56:14;;;;;;;;;;;;;;;9.39;48.18;99394.39;1698969;84;20169;-66
2022/02/25 11:58:51;;;;;;;;;;;;;;;9.48;48.17;99393.89;1700278;84;21170;-67
2022/02/25 12:01:21;;;;;;;;;;;;;;;9.33;48.46;99392.33;1701172;84;20085;-65
2022/02/25 12:04:08;;;;;;;;;;;;;;;8.94;48.50;99388.34;1701987;84;20190;-65
2022/02/25 12:06:59;;;;;;;;;;;;;;;8.43;49.43;99389.22;1710655;83;20501;-65
2022/02/25 12:09:59;;;;;;;;;;;;;;;8.06;50.94;99387.48;1707425;83;20144;-65
2022/02/25 12:12:30;;;;;;;;;;;;;;;7.81;51.86;99396.96;1711569;82;21089;-70
2022/02/25 12:15:10;;;;;;;;;;;;;;;7.63;52.89;99380.88;1704048;83;20452;-69
2022/02/25 12:17:59;;;;;;;;;;;;;;;7.95;53.04;99374.56;1711185;83;20194;-68
2022/02/25 12:20:35;;;;;;;;;;;;;;;8.65;51.96;99374.23;1712738;83;20097;-65
2022/02/25 12:23:18;;;;;;;;;;;;;;;9.00;50.51;99371.80;1725168;81;20206;-65
2022/02/25 12:26:04;;;;;;;;;;;;;;;9.02;50.74;99370.37;1703370;83;21208;-68
2022/02/25 12:28:33;;;;;;;;;;;;;;;8.79;50.50;99370.08;1709319;82;20093;-67
2022/02/25 12:31:20;;;;;;;;;;;;;;;8.36;51.06;99362.27;1705498;83;20163;-65
2022/02/25 12:34:03;;;;;;;;;;;;;;;7.92;51.99;99361.50;1713551;82;20084;-65
2022/02/25 12:36:33;;;;;;;;;;;;;;;7.65;53.00;99362.27;1710097;83;20120;-65
2022/02/25 12:39:13;;;;;;;;;;;;;;;7.67;53.74;99355.95;1709950;83;21119;-65
2022/02/25 12:41:43;;;;;;;;;;;;;;;8.08;53.99;99346.42;1710715;82;20111;-66
2022/02/25 12:44:18;;;;;;;;;;;;;;;8.76;53.11;99346.06;1708504;82;20177;-65
2022/02/25 12:46:51;;;;;;;;;;;;;;;9.16;51.06;99354.70;1713284;83;20410;-67
2022/02/25 12:49:21;;;;;;;;;;;;;;;9.00;50.58;99348.52;1714038;82;20407;-66
2022/02/25 12:52:10;;;;;;;;;;;;;;;8.66;50.96;99338.11;1716608;83;20147;-67
2022/02/25 12:54:40;;;;;;;;;;;;;;;8.49;51.59;99340.92;1713618;83;20418;-66
2022/02/25 12:57:25;;;;;;;;;;;;;;;8.67;51.12;99331.48;1713526;83;20087;-65
2022/02/25 12:59:54;;;;;;;;;;;;;;;8.81;51.25;99336.36;1725576;83;20137;-66
2022/02/25 13:02:39;;;;;;;;;;;;;;;8.80;52.51;99334.19;1665557;84;20507;-65
2022/02/25 13:05:06;;;;;;;;;;;;;;;8.64;50.33;99332.13;1688767;83;21128;-65
2022/02/25 13:07:33;;;;;;;;;;;;;;;8.47;50.19;99338.25;1728583;83;20093;-65
2022/02/25 13:10:18;;;;;;;;;;;;;;;8.42;50.11;99335.62;1728801;83;20100;-65
2022/02/25 13:12:44;;;;;;;;;;;;;;;8.59;50.61;99331.13;1728742;83;20174;-65
2022/02/25 13:15:12;;;;;;;;;;;;;;;8.76;49.88;99336.48;1728705;83;20101;-65
2022/02/25 13:17:39;;;;;;;;;;;;;;;8.89;50.11;99337.00;1728848;83;21173;-65
2022/02/25 13:20:07;;;;;;;;;;;;;;;9.26;49.07;99333.88;1728600;83;20097;-65
2022/02/25 13:22:44;;;;;;;;;;;;;;;9.52;48.90;99329.13;1728693;83;20112;-65
2022/02/25 13:25:13;;;;;;;;;;;;;;;9.67;47.44;99331.47;1715722;83;20495;-65
2022/02/25 13:28:00;;;;;;;;;;;;;;;9.83;47.43;99334.58;1733084;83;20121;-70
2022/02/25 13:30:30;;;;;;;;;;;;;;;10.09;47.68;99331.95;1720507;83;21195;-66
2022/02/25 13:33:01;;;;;;;;;;;;;;;10.39;46.87;99325.61;1703791;84;20115;-66